Time;durP1;ratioP1;P1;durP2;ratioP2;P2;SDS_P1;SDS_P2;PMS_P1;PMS_P2;Temp;Humidity;BMP_temperature;BMP_pressure;BME280_temperature;BME280_humidity;BME280_pressure;Samples;Min_cycle;Max_cycle;Signal;HPM_P1;HPM_P2
2021/11/20 00:00:04;;;;;;;31.30;8.65;;;;;;;;;;6269697;22;20043;-93
2021/11/20 00:02:31;;;;;;;43.30;9.70;;;;;;;;;;6268846;22;20016;-93
2021/11/20 00:04:59;;;;;;;29.73;7.55;;;;;;;;;;6268227;23;20039;-92
2021/11/20 00:07:26;;;;;;;38.55;10.27;;;;;;;;;;6268471;23;20027;-95
2021/11/20 00:09:54;;;;;;;29.45;9.23;;;;;;;;;;6269752;22;20078;-95
2021/11/20 00:12:22;;;;;;;31.13;8.93;;;;;;;;;;6267735;23;20051;-95
2021/11/20 00:14:55;;;;;;;28.35;8.40;;;;;;;;;;6267101;23;20028;-95
2021/11/20 00:17:22;;;;;;;27.70;8.93;;;;;;;;;;6265806;23;20081;-95
2021/11/20 00:19:50;;;;;;;37.42;9.82;;;;;;;;;;6266911;23;20103;-94
2021/11/20 00:22:29;;;;;;;36.95;10.18;;;;;;;;;;6267232;23;20020;-94
2021/11/20 00:25:19;;;;;;;35.78;10.93;;;;;;;;;;6266909;22;20031;-94
2021/11/20 00:27:53;;;;;;;33.97;11.27;;;;;;;;;;6271105;22;20008;-94
2021/11/20 00:30:23;;;;;;;27.13;10.38;;;;;;;;;;6272166;22;20019;-95
2021/11/20 00:32:56;;;;;;;30.73;9.98;;;;;;;;;;6271383;22;20028;-94
2021/11/20 00:35:49;;;;;;;28.67;9.93;;;;;;;;;;6271755;22;20018;-94
2021/11/20 00:38:15;;;;;;;35.47;11.23;;;;;;;;;;6271035;22;20012;-94
2021/11/20 00:40:44;;;;;;;38.97;10.45;;;;;;;;;;6269389;22;20023;-95
2021/11/20 00:43:12;;;;;;;25.00;8.90;;;;;;;;;;6267587;23;20020;-93
2021/11/20 00:45:43;;;;;;;41.75;10.57;;;;;;;;;;6269195;23;20046;-94
2021/11/20 00:48:10;;;;;;;27.80;10.48;;;;;;;;;;6269862;22;20022;-94
2021/11/20 00:50:38;;;;;;;31.90;9.50;;;;;;;;;;6269844;22;20051;-94
2021/11/20 00:53:07;;;;;;;32.47;9.98;;;;;;;;;;6269820;23;20112;-93
2021/11/20 00:55:44;;;;;;;24.55;9.48;;;;;;;;;;6267574;23;20024;-93
2021/11/20 00:58:11;;;;;;;31.30;9.35;;;;;;;;;;6268264;23;20020;-94
2021/11/20 01:00:40;;;;;;;28.17;9.73;;;;;;;;;;6266134;23;20030;-94
2021/11/20 01:03:07;;;;;;;34.55;10.55;;;;;;;;;;6268120;23;20047;-94
2021/11/20 01:06:09;;;;;;;31.67;9.27;;;;;;;;;;6269212;22;20024;-93
2021/11/20 01:08:38;;;;;;;35.72;10.43;;;;;;;;;;6275697;22;20022;-94
2021/11/20 01:11:07;;;;;;;31.58;9.80;;;;;;;;;;6276588;22;20018;-94
2021/11/20 01:13:37;;;;;;;29.88;8.52;;;;;;;;;;6303506;22;20023;-93
2021/11/20 01:16:13;;;;;;;29.30;9.68;;;;;;;;;;6277980;22;20055;-93
2021/11/20 01:18:40;;;;;;;28.65;9.75;;;;;;;;;;6277260;22;20007;-95
2021/11/20 01:21:07;;;;;;;30.45;9.60;;;;;;;;;;6277389;22;20025;-95
2021/11/20 01:23:37;;;;;;;27.73;10.00;;;;;;;;;;6275291;22;20023;-94
2021/11/20 01:26:03;;;;;;;27.00;9.07;;;;;;;;;;6276637;22;20008;-94
2021/11/20 01:31:54;;;;;;;24.02;9.15;;;;;;;;;;6301049;22;20021;-94
2021/11/20 01:34:24;;;;;;;34.20;10.07;;;;;;;;;;6274012;22;20020;-94
2021/11/20 01:36:54;;;;;;;32.58;9.48;;;;;;;;;;6274878;22;20045;-94
2021/11/20 01:39:26;;;;;;;25.58;9.82;;;;;;;;;;6276132;22;20067;-94
2021/11/20 01:41:55;;;;;;;27.00;10.00;;;;;;;;;;6276545;22;20055;-95
2021/11/20 01:44:25;;;;;;;33.47;11.70;;;;;;;;;;6275905;22;20022;-95
2021/11/20 01:46:53;;;;;;;37.03;11.73;;;;;;;;;;6275655;22;20082;-94
2021/11/20 01:49:22;;;;;;;37.80;10.73;;;;;;;;;;6272414;22;20023;-94
2021/11/20 01:51:57;;;;;;;24.50;10.75;;;;;;;;;;6274905;22;20023;-94
2021/11/20 01:54:43;;;;;;;28.42;10.60;;;;;;;;;;6274023;22;20065;-95
2021/11/20 01:57:38;;;;;;;36.00;11.30;;;;;;;;;;6273377;22;20103;-95
2021/11/20 02:00:31;;;;;;;30.45;11.13;;;;;;;;;;6273853;22;20095;-94
2021/11/20 02:03:03;;;;;;;30.20;11.50;;;;;;;;;;6269610;22;20025;-95
2021/11/20 02:05:59;;;;;;;38.28;13.40;;;;;;;;;;6277195;22;20008;-94
2021/11/20 02:08:28;;;;;;;37.53;14.00;;;;;;;;;;6276597;22;20023;-95
2021/11/20 02:11:02;;;;;;;32.88;12.77;;;;;;;;;;6279532;22;20012;-94
2021/11/20 02:13:49;;;;;;;34.33;13.40;;;;;;;;;;6278890;22;20031;-94
2021/11/20 02:16:15;;;;;;;34.95;13.02;;;;;;;;;;6279243;22;20031;-94
2021/11/20 02:18:44;;;;;;;33.22;13.05;;;;;;;;;;6276554;22;20023;-94
2021/11/20 02:21:11;;;;;;;35.85;13.27;;;;;;;;;;6276355;22;20222;-94
2021/11/20 02:27:16;;;;;;;34.65;14.40;;;;;;;;;;6304763;22;20002;-94
2021/11/20 02:29:46;;;;;;;35.78;13.98;;;;;;;;;;6275144;22;20020;-94
2021/11/20 02:32:15;;;;;;;30.42;13.38;;;;;;;;;;6275640;22;20012;-94
2021/11/20 02:34:43;;;;;;;26.85;13.80;;;;;;;;;;6275809;22;20019;-94
2021/11/20 02:37:11;;;;;;;35.80;14.38;;;;;;;;;;6274046;22;20082;-94
2021/11/20 02:40:09;;;;;;;35.33;13.00;;;;;;;;;;6275159;22;20061;-94
2021/11/20 02:42:37;;;;;;;35.92;13.45;;;;;;;;;;6276781;22;20020;-94
2021/11/20 02:45:12;;;;;;;32.05;13.52;;;;;;;;;;6278372;22;20007;-94
2021/11/20 02:47:40;;;;;;;25.63;13.32;;;;;;;;;;6278533;22;20016;-94
2021/11/20 02:50:30;;;;;;;32.28;13.23;;;;;;;;;;6279299;22;20004;-93
2021/11/20 02:52:56;;;;;;;24.75;11.88;;;;;;;;;;6278602;22;20008;-94
2021/11/20 02:55:24;;;;;;;33.15;13.13;;;;;;;;;;6278401;22;20029;-94
2021/11/20 02:57:51;;;;;;;28.95;12.75;;;;;;;;;;6278887;22;20045;-94
2021/11/20 03:00:18;;;;;;;36.65;12.38;;;;;;;;;;6277794;22;20019;-94
2021/11/20 03:03:16;;;;;;;29.77;12.75;;;;;;;;;;6277272;22;20003;-95
2021/11/20 03:05:43;;;;;;;26.85;12.23;;;;;;;;;;6276545;22;20030;-94
2021/11/20 03:08:11;;;;;;;25.90;13.05;;;;;;;;;;6276455;22;20030;-94
2021/11/20 03:10:41;;;;;;;24.73;11.75;;;;;;;;;;6275471;22;20035;-93
2021/11/20 03:13:08;;;;;;;27.98;12.80;;;;;;;;;;6275034;22;20075;-94
2021/11/20 03:15:35;;;;;;;30.30;13.10;;;;;;;;;;6275197;22;20019;-95
2021/11/20 03:18:02;;;;;;;24.38;11.95;;;;;;;;;;6275534;22;20007;-93
2021/11/20 03:20:43;;;;;;;27.70;12.07;;;;;;;;;;6278057;22;20015;-94
2021/11/20 03:23:19;;;;;;;25.83;12.43;;;;;;;;;;6277136;22;20038;-94
2021/11/20 03:25:45;;;;;;;28.50;12.82;;;;;;;;;;6278061;22;20018;-94
2021/11/20 03:28:16;;;;;;;25.38;11.95;;;;;;;;;;6277938;22;20022;-93
2021/11/20 03:30:44;;;;;;;26.75;12.73;;;;;;;;;;6277879;22;20012;-94
2021/11/20 03:33:11;;;;;;;33.40;13.35;;;;;;;;;;6278079;22;20034;-94
2021/11/20 03:35:39;;;;;;;33.58;12.52;;;;;;;;;;6277339;22;20023;-94
2021/11/20 03:38:28;;;;;;;22.67;12.95;;;;;;;;;;6276607;22;20338;-93
2021/11/20 03:40:56;;;;;;;35.08;13.93;;;;;;;;;;6276392;22;20008;-94
2021/11/20 03:43:23;;;;;;;31.83;13.95;;;;;;;;;;6275706;22;20055;-94
2021/11/20 03:45:50;;;;;;;24.45;14.23;;;;;;;;;;6275440;22;20077;-93
2021/11/20 03:48:32;;;;;;;22.65;13.07;;;;;;;;;;6275374;22;20039;-93
2021/11/20 03:51:03;;;;;;;24.25;12.82;;;;;;;;;;6275771;22;20019;-93
2021/11/20 03:53:33;;;;;;;32.03;14.35;;;;;;;;;;6276846;22;20031;-93
2021/11/20 03:56:01;;;;;;;31.90;15.52;;;;;;;;;;6274380;22;20023;-93
2021/11/20 03:58:37;;;;;;;33.25;15.23;;;;;;;;;;6276467;22;20020;-93
2021/11/20 04:01:09;;;;;;;36.05;16.45;;;;;;;;;;6275123;22;20003;-94
2021/11/20 04:03:50;;;;;;;31.02;15.60;;;;;;;;;;6276691;22;20028;-93
2021/11/20 04:06:17;;;;;;;28.83;14.45;;;;;;;;;;6275855;22;20014;-93
2021/11/20 04:08:46;;;;;;;34.22;15.23;;;;;;;;;;6267900;23;20085;-94
2021/11/20 04:11:27;;;;;;;30.65;15.57;;;;;;;;;;6267986;23;20080;-93
2021/11/20 04:13:54;;;;;;;34.40;14.73;;;;;;;;;;6267272;23;20023;-93
2021/11/20 04:16:23;;;;;;;27.92;15.50;;;;;;;;;;6268417;23;20031;-94
2021/11/20 04:18:50;;;;;;;29.65;14.20;;;;;;;;;;6268489;23;20055;-94
2021/11/20 04:21:17;;;;;;;33.08;16.08;;;;;;;;;;6272011;22;20035;-94
2021/11/20 04:23:47;;;;;;;33.28;15.85;;;;;;;;;;6272088;22;20016;-93
2021/11/20 04:26:23;;;;;;;33.78;16.00;;;;;;;;;;6269135;22;20024;-94
2021/11/20 04:28:50;;;;;;;31.00;16.30;;;;;;;;;;6270229;23;20038;-94
2021/11/20 04:31:19;;;;;;;28.85;14.75;;;;;;;;;;6269364;23;20031;-93
2021/11/20 04:33:47;;;;;;;30.42;16.45;;;;;;;;;;6271153;22;20142;-94
2021/11/20 04:36:21;;;;;;;34.63;16.95;;;;;;;;;;6272086;22;20030;-95
2021/11/20 04:38:48;;;;;;;33.42;17.27;;;;;;;;;;6268838;23;20026;-94
2021/11/20 04:41:15;;;;;;;29.10;17.33;;;;;;;;;;6268296;23;20176;-94
2021/11/20 04:43:44;;;;;;;33.72;16.80;;;;;;;;;;6267982;23;20024;-93
2021/11/20 04:46:12;;;;;;;40.15;17.55;;;;;;;;;;6268064;23;20020;-94
2021/11/20 04:48:40;;;;;;;41.22;18.50;;;;;;;;;;6268701;23;20037;-95
2021/11/20 04:51:08;;;;;;;33.03;17.70;;;;;;;;;;6271782;22;20031;-95
2021/11/20 04:54:14;;;;;;;40.88;18.55;;;;;;;;;;6271570;22;20116;-94
2021/11/20 04:56:44;;;;;;;34.70;18.15;;;;;;;;;;6270148;23;20024;-94
2021/11/20 04:59:11;;;;;;;37.25;18.92;;;;;;;;;;6267729;23;20075;-95
2021/11/20 05:01:39;;;;;;;39.08;19.95;;;;;;;;;;6268259;23;20091;-94
2021/11/20 05:04:06;;;;;;;32.65;19.23;;;;;;;;;;6267835;23;20020;-94
2021/11/20 05:06:33;;;;;;;41.15;19.35;;;;;;;;;;6268542;23;20379;-94
2021/11/20 05:09:02;;;;;;;36.05;19.17;;;;;;;;;;6269983;22;20080;-95
2021/11/20 05:11:30;;;;;;;37.15;19.30;;;;;;;;;;6271969;22;20042;-94
2021/11/20 05:14:00;;;;;;;33.25;19.00;;;;;;;;;;6271862;22;20016;-94
2021/11/20 05:16:37;;;;;;;36.78;18.38;;;;;;;;;;6272136;22;20012;-94
2021/11/20 05:19:07;;;;;;;32.00;17.98;;;;;;;;;;6271671;22;20012;-94
2021/11/20 05:21:34;;;;;;;35.92;18.25;;;;;;;;;;6271917;22;20031;-95
2021/11/20 05:24:09;;;;;;;34.55;16.98;;;;;;;;;;6271824;22;20020;-94
2021/11/20 05:26:37;;;;;;;33.53;17.50;;;;;;;;;;6271670;22;20007;-94
2021/11/20 05:29:16;;;;;;;39.95;18.52;;;;;;;;;;6268919;23;20008;-94
2021/11/20 05:31:47;;;;;;;32.35;17.75;;;;;;;;;;6269012;22;20035;-94
2021/11/20 05:34:14;;;;;;;32.30;17.17;;;;;;;;;;6268080;23;20024;-93
2021/11/20 05:36:41;;;;;;;33.05;18.63;;;;;;;;;;6269496;23;20076;-94
2021/11/20 05:39:12;;;;;;;35.42;18.02;;;;;;;;;;6268557;23;20030;-93
2021/11/20 05:41:39;;;;;;;29.83;18.55;;;;;;;;;;6269525;23;20024;-93
2021/11/20 05:44:13;;;;;;;36.80;18.48;;;;;;;;;;6268827;22;20024;-94
2021/11/20 05:46:43;;;;;;;34.40;17.90;;;;;;;;;;6269414;23;20044;-94
2021/11/20 05:49:18;;;;;;;30.83;17.65;;;;;;;;;;6268660;23;20076;-94
2021/11/20 05:51:45;;;;;;;30.50;17.10;;;;;;;;;;6271038;22;20056;-94
2021/11/20 05:54:12;;;;;;;32.30;18.85;;;;;;;;;;6272031;22;20008;-94
2021/11/20 06:00:13;;;;;;;28.75;17.70;;;;;;;;;;6272322;22;20060;-94
2021/11/20 06:02:40;;;;;;;30.60;18.38;;;;;;;;;;6270795;22;20028;-94
2021/11/20 06:05:07;;;;;;;37.58;19.83;;;;;;;;;;6271376;22;20012;-94
2021/11/20 06:07:34;;;;;;;29.40;18.67;;;;;;;;;;6271862;22;20067;-94
2021/11/20 06:10:03;;;;;;;40.90;20.38;;;;;;;;;;6270709;22;20058;-94
2021/11/20 06:12:33;;;;;;;35.42;20.27;;;;;;;;;;6270751;22;20020;-93
2021/11/20 06:15:00;;;;;;;34.33;17.25;;;;;;;;;;6268077;22;20040;-93
2021/11/20 06:17:36;;;;;;;26.45;17.40;;;;;;;;;;6270053;22;20031;-93
2021/11/20 06:20:04;;;;;;;32.33;19.40;;;;;;;;;;6271596;22;20104;-93
2021/11/20 06:22:33;;;;;;;32.08;18.45;;;;;;;;;;6271005;22;20076;-93
2021/11/20 06:25:01;;;;;;;27.23;18.50;;;;;;;;;;6270257;22;20076;-93
2021/11/20 06:27:34;;;;;;;141.60;26.63;;;;;;;;;;6270653;22;20008;-93
2021/11/20 06:30:02;;;;;;;29.88;17.88;;;;;;;;;;6269943;22;20028;-93
2021/11/20 06:32:29;;;;;;;26.95;17.77;;;;;;;;;;6267060;23;20032;-93
2021/11/20 06:34:56;;;;;;;27.10;17.40;;;;;;;;;;6266281;23;20024;-93
2021/11/20 06:37:42;;;;;;;34.35;17.88;;;;;;;;;;6269201;22;20018;-93
2021/11/20 06:40:11;;;;;;;32.40;18.00;;;;;;;;;;6268402;22;20115;-92
2021/11/20 06:42:39;;;;;;;26.50;16.85;;;;;;;;;;6267564;22;20020;-93
2021/11/20 06:45:07;;;;;;;27.83;16.67;;;;;;;;;;6266123;23;20025;-93
2021/11/20 06:50:58;;;;;;;27.88;15.90;;;;;;;;;;6272427;22;20042;-93
2021/11/20 06:53:27;;;;;;;28.55;15.38;;;;;;;;;;6271401;22;20108;-93
2021/11/20 06:55:53;;;;;;;27.08;15.85;;;;;;;;;;6273125;22;20060;-94
2021/11/20 06:58:53;;;;;;;31.52;16.75;;;;;;;;;;6273427;22;20012;-94
2021/11/20 07:01:22;;;;;;;26.67;15.45;;;;;;;;;;6271332;22;20047;-93
2021/11/20 07:03:52;;;;;;;24.13;14.90;;;;;;;;;;6272773;22;20061;-94
2021/11/20 07:06:39;;;;;;;22.83;14.48;;;;;;;;;;6273905;22;20030;-94
2021/11/20 07:09:06;;;;;;;23.40;14.68;;;;;;;;;;6274282;22;20485;-94
2021/11/20 07:11:48;;;;;;;24.02;14.20;;;;;;;;;;6273799;22;20012;-94
2021/11/20 07:17:05;;;;;;;21.30;13.38;;;;;;;;;;6263443;22;20007;-94
2021/11/20 07:19:35;;;;;;;24.08;15.50;;;;;;;;;;6306203;22;20016;-95
2021/11/20 07:22:07;;;;;;;25.50;14.32;;;;;;;;;;6280767;22;20010;-95
2021/11/20 07:24:39;;;;;;;21.23;14.45;;;;;;;;;;6281180;22;20014;-95
2021/11/20 07:27:17;;;;;;;25.10;14.23;;;;;;;;;;6282354;22;20044;-95
2021/11/20 07:29:45;;;;;;;27.83;14.75;;;;;;;;;;6280523;22;20011;-95
2021/11/20 07:32:12;;;;;;;25.05;13.00;;;;;;;;;;6280118;22;20007;-95
2021/11/20 07:34:39;;;;;;;27.35;14.20;;;;;;;;;;6280307;22;20008;-94
2021/11/20 07:37:06;;;;;;;23.02;13.80;;;;;;;;;;6280316;22;20030;-93
2021/11/20 07:39:47;;;;;;;25.63;14.10;;;;;;;;;;6282833;22;20012;-95
2021/11/20 07:42:16;;;;;;;20.40;13.85;;;;;;;;;;6280531;22;20010;-96
2021/11/20 07:44:44;;;;;;;23.50;13.90;;;;;;;;;;6280227;22;20008;-95
2021/11/20 07:47:12;;;;;;;22.60;13.95;;;;;;;;;;6280317;22;20011;-96
2021/11/20 08:16:25;;;;;;;27.52;15.90;;;;;;;;;;6207578;22;20000;-94
2021/11/20 08:19:04;;;;;;;26.33;14.82;;;;;;;;;;6273504;22;20027;-95
2021/11/20 08:21:31;;;;;;;21.65;14.48;;;;;;;;;;6273062;22;20060;-95
